Latest Weather Observations for Sydney Harbour

IDN60801

Issued at 12:32 am EDT Sunday 19 November 2017 (issued every 30 minutes, with the page automatically refreshed every 10 minutes)

About weather observations | Map of weather stations | Latest weather observations for NSW | Other Formats
Station Details ID: 066196 Name: WEDDING CAKE WEST Lat: -33.84 Lon: 151.26 Height: 6.0 m
Data from the previous 72 hours. | See also: Recent months at Sydney Harbour
Date/Time
EDT
Temp
°C
App
Temp
°C
Dew
Point
°C
Rel
Hum
%
Delta-T
°C
Wind Press
QNH
hPa
Press
MSL
hPa
Rain since
9am
mm
Dir  Spd
km/h
Gust
km/h
Spd
kts
Gust
kts
19/12:30am 19.1 - - - - E 15 19 8 10 - - -
19/12:00am 17.8 - - - - E 6 13 3 7 - - -
 
Date/Time
EDT
Temp
°C
App
Temp
°C
Dew
Point
°C
Rel
Hum
%
Delta-T
°C
Wind Press
QNH
hPa
Press
MSL
hPa
Rain since
9am
mm
Dir  Spd
km/h
Gust
km/h
Spd
kts
Gust
kts
18/11:30pm 18.3 - - - - E 32 43 17 23 - - -
18/11:21pm 18.6 - - - - ENE 28 48 15 26 - - -
18/11:00pm 19.0 - - - - ENE 20 30 11 16 - - -
18/10:30pm 18.8 - - - - E 32 39 17 21 - - -
18/10:00pm 18.7 - - - - ENE 24 32 13 17 - - -
18/09:30pm 19.6 - - - - NE 24 28 13 15 - - -
18/09:00pm 19.5 - - - - ENE 24 32 13 17 - - -
18/08:30pm 19.5 - - - - ENE 19 24 10 13 - - -
18/08:00pm 19.8 - - - - NE 26 30 14 16 - - -
18/07:30pm 20.1 - - - - NE 26 32 14 17 - - -
18/07:00pm 20.1 - - - - NE 28 33 15 18 - - -
18/06:30pm 20.0 - - - - ENE 30 35 16 19 - - -
18/06:00pm 20.4 - - - - NE 32 37 17 20 - - -
18/05:30pm 20.3 - - - - NE 28 32 15 17 - - -
18/05:00pm 20.2 - - - - NE 24 32 13 17 - - -
18/04:30pm 20.3 - - - - NE 26 35 14 19 - - -
18/04:00pm 20.2 - - - - NE 32 37 17 20 - - -
18/03:30pm 19.9 - - - - ENE 33 41 18 22 - - -
18/03:00pm 19.1 - - - - ENE 32 37 17 20 - - -
18/02:30pm 19.9 - - - - NE 30 35 16 19 - - -
18/02:00pm 19.7 - - - - NE 33 43 18 23 - - -
18/01:30pm 20.1 - - - - NE 33 43 18 23 - - -
18/01:00pm 19.8 - - - - NE 28 33 15 18 - - -
18/12:30pm 19.4 - - - - NE 32 39 17 21 - - -
18/12:00pm 19.5 - - - - NE 33 41 18 22 - - -
18/11:30am 18.5 - - - - ENE 32 39 17 21 - - -
18/11:00am 19.1 - - - - NE 37 48 20 26 - - -
18/10:30am 19.0 - - - - NE 39 50 21 27 - - -
18/10:00am 18.4 - - - - ENE 28 35 15 19 - - -
18/09:30am 18.3 - - - - NE 41 50 22 27 - - -
18/09:00am 18.8 - - - - NE 37 46 20 25 - - -
18/08:30am 18.8 - - - - NE 35 46 19 25 - - -
18/08:00am 19.2 - - - - NE 26 30 14 16 - - -
18/07:30am 19.1 - - - - NNE 28 32 15 17 - - -
18/07:00am 18.9 - - - - NNE 24 32 13 17 - - -
18/06:30am 19.2 - - - - NE 28 32 15 17 - - -
18/06:00am 19.1 - - - - NNE 26 30 14 16 - - -
18/05:30am 19.2 - - - - NNE 22 26 12 14 - - -
18/05:00am 19.6 - - - - NE 28 33 15 18 - - -
18/04:30am 19.6 - - - - NE 28 35 15 19 - - -
18/04:00am 19.4 - - - - NE 26 30 14 16 - - -
18/03:30am 19.9 - - - - NE 32 37 17 20 - - -
18/03:00am 19.8 - - - - NNE 24 32 13 17 - - -
18/02:30am 19.8 - - - - NE 24 32 13 17 - - -
18/02:00am 19.6 - - - - NNE 24 32 13 17 - - -
18/01:30am 19.5 - - - - NNE 24 32 13 17 - - -
18/01:00am 19.5 - - - - NNE 28 33 15 18 - - -
18/12:30am 19.6 - - - - NNE 28 35 15 19 - - -
18/12:00am 19.6 - - - - NNE 22 30 12 16 - - -
 
Date/Time
EDT
Temp
°C
App
Temp
°C
Dew
Point
°C
Rel
Hum
%
Delta-T
°C
Wind Press
QNH
hPa
Press
MSL
hPa
Rain since
9am
mm
Dir  Spd
km/h
Gust
km/h
Spd
kts
Gust
kts
17/11:30pm 19.7 - - - - NE 26 32 14 17 - - -
17/11:00pm 19.7 - - - - NNE 24 30 13 16 - - -
17/10:30pm 20.1 - - - - NE 30 41 16 22 - - -
17/10:00pm 20.6 - - - - NNE 33 43 18 23 - - -
17/09:30pm 20.6 - - - - NE 33 41 18 22 - - -
17/09:00pm 20.4 - - - - NE 30 37 16 20 - - -
17/08:30pm 20.2 - - - - NE 28 35 15 19 - - -
17/08:00pm 20.3 - - - - NE 26 32 14 17 - - -
17/07:30pm 20.4 - - - - NNE 28 35 15 19 - - -
17/07:00pm 20.7 - - - - NNE 30 37 16 20 - - -
17/06:30pm 20.7 - - - - NE 30 39 16 21 - - -
17/06:00pm 20.9 - - - - NE 35 44 19 24 - - -
17/05:30pm 20.8 - - - - NE 35 43 19 23 - - -
17/05:00pm 20.8 - - - - NE 32 43 17 23 - - -
17/04:30pm 20.5 - - - - NE 32 41 17 22 - - -
17/04:00pm 20.6 - - - - NE 37 50 20 27 - - -
17/03:30pm 20.8 - - - - NNE 43 52 23 28 - - -
17/03:00pm 21.0 - - - - NE 44 63 24 34 - - -
17/02:59pm 21.0 - - - - NE 44 63 24 34 - - -
17/02:30pm 20.7 - - - - NE 37 46 20 25 - - -
17/02:00pm 21.0 - - - - NNE 41 50 22 27 - - -
17/01:30pm 20.5 - - - - NNE 41 52 22 28 - - -
17/01:00pm 20.4 - - - - NNE 39 48 21 26 - - -
17/12:30pm 20.0 - - - - NNE 33 50 18 27 - - -
17/12:00pm 19.7 - - - - NNE 37 44 20 24 - - -
17/11:30am 19.9 - - - - NNE 39 46 21 25 - - -
17/11:00am 20.4 - - - - NNE 43 50 23 27 - - -
17/10:30am 20.1 - - - - NNE 35 43 19 23 - - -
17/10:00am 19.9 - - - - NNE 37 44 20 24 - - -
17/09:30am 19.9 - - - - NNE 32 41 17 22 - - -
17/09:00am 19.5 - - - - NNE 26 35 14 19 - - -
17/08:30am 19.4 - - - - NNE 24 30 13 16 - - -
17/08:00am 19.4 - - - - NNE 24 35 13 19 - - -
17/07:30am 19.3 - - - - NNE 26 30 14 16 - - -
17/07:00am 19.1 - - - - NNE 28 32 15 17 - - -
17/06:30am 19.0 - - - - NNE 30 35 16 19 - - -
17/06:00am 19.2 - - - - NNE 26 32 14 17 - - -
17/05:30am 19.2 - - - - NNE 24 30 13 16 - - -
17/05:00am 19.2 - - - - NNE 22 28 12 15 - - -
17/04:30am 19.2 - - - - NNE 26 32 14 17 - - -
17/04:00am 19.3 - - - - NNE 19 22 10 12 - - -
17/03:30am 19.5 - - - - NNE 13 15 7 8 - - -
17/03:00am 19.4 - - - - NE 17 20 9 11 - - -
17/02:30am 19.4 - - - - NE 13 17 7 9 - - -
17/02:00am 19.3 - - - - NE 20 22 11 12 - - -
17/01:30am 19.4 - - - - NNE 26 32 14 17 - - -
17/01:00am 19.4 - - - - NNE 28 33 15 18 - - -
17/12:30am 19.6 - - - - NNE 32 35 17 19 - - -
17/12:00am 19.7 - - - - NNE 30 35 16 19 - - -
 
Date/Time
EDT
Temp
°C
App
Temp
°C
Dew
Point
°C
Rel
Hum
%
Delta-T
°C
Wind Press
QNH
hPa
Press
MSL
hPa
Rain since
9am
mm
Dir  Spd
km/h
Gust
km/h
Spd
kts
Gust
kts
16/11:30pm 19.7 - - - - NNE 24 30 13 16 - - -
16/11:00pm 19.8 - - - - NNE 22 28 12 15 - - -
16/10:30pm 19.3 - - - - NNE 22 28 12 15 - - -
16/10:00pm 19.3 - - - - NNE 28 33 15 18 - - -
16/09:30pm 19.4 - - - - NNE 30 37 16 20 - - -
16/09:00pm 19.7 - - - - NNE 32 39 17 21 - - -
16/08:30pm 20.1 - - - - NE 35 44 19 24 - - -
16/08:00pm 20.0 - - - - NE 37 44 20 24 - - -
16/07:30pm 19.9 - - - - NNE 37 44 20 24 - - -
16/07:00pm 20.0 - - - - NNE 33 39 18 21 - - -
16/06:30pm 20.3 - - - - NNE 30 37 16 20 - - -
16/06:00pm 20.1 - - - - NNE 26 30 14 16 - - -
16/05:30pm 20.0 - - - - NNE 26 32 14 17 - - -
16/05:00pm 20.3 - - - - NNE 26 33 14 18 - - -
16/04:30pm 20.5 - - - - NNE 26 32 14 17 - - -
16/04:00pm 20.6 - - - - NNE 30 35 16 19 - - -
16/03:30pm 20.5 - - - - NNE 28 33 15 18 - - -
16/03:00pm 20.8 - - - - NNE 33 41 18 22 - - -
16/02:30pm 20.9 - - - - NNE 35 41 19 22 - - -
16/02:00pm 21.0 - - - - NNE 39 48 21 26 - - -
16/01:30pm 21.1 - - - - NNE 37 50 20 27 - - -
16/01:00pm 20.8 - - - - NNE 37 44 20 24 - - -
16/12:30pm 20.7 - - - - NNE 37 46 20 25 - - -
16/12:00pm 20.6 - - - - NNE 39 46 21 25 - - -
16/11:30am 20.5 - - - - NNE 39 46 21 25 - - -
16/11:00am 20.2 - - - - NNE 35 44 19 24 - - -
16/10:30am 20.3 - - - - NNE 35 43 19 23 - - -
16/10:00am 19.9 - - - - NNE 32 37 17 20 - - -
16/09:30am 19.8 - - - - NNE 28 33 15 18 - - -
16/09:00am 19.7 - - - - NNE 24 33 13 18 - - -
16/08:30am 19.8 - - - - NNE 26 30 14 16 - - -
16/08:00am 19.8 - - - - NNE 22 28 12 15 - - -
16/07:30am 19.4 - - - - NNE 19 22 10 12 - - -
16/07:00am 19.3 - - - - NNE 19 26 10 14 - - -
16/06:30am 19.1 - - - - N 13 17 7 9 - - -
16/06:00am 19.0 - - - - N 11 17 6 9 - - -
16/05:30am 19.1 - - - - NNE 13 17 7 9 - - -
16/05:00am 19.1 - - - - N 15 20 8 11 - - -
16/04:30am 19.7 - - - - NNE 26 32 14 17 - - -
16/04:00am 19.6 - - - - NNE 26 32 14 17 - - -
16/03:30am 19.7 - - - - NNE 28 35 15 19 - - -
16/03:00am 19.8 - - - - NNE 28 33 15 18 - - -
16/02:30am 19.7 - - - - NNE 26 32 14 17 - - -
16/02:00am 19.7 - - - - NNE 26 30 14 16 - - -
16/01:30am 19.7 - - - - N 26 33 14 18 - - -
16/01:00am 19.8 - - - - NNE 33 39 18 21 - - -

Other Formats:

Comma delimited format used in spreadsheet applications
http://www.bom.gov.au/fwo/IDN60801/IDN60801.95766.axf

JavaScript Object Notation format (JSON) in row-major order
http://www.bom.gov.au/fwo/IDN60801/IDN60801.95766.json